AirNav   Everest Fuels
 
 989 users online  

NH60 Huff Memorial Airport
New Boston, New Hampshire, USA

GOING TO NEW BOSTON?


FAA INFORMATION EFFECTIVE 10 SEPTEMBER 2020

Location

FAA Identifier: NH60
Lat/Long: 42-57-38.3020N 071-39-12.2600W
42-57.638367N 071-39.204333W
42.9606394,-71.6534056
(estimated)
Elevation: 840 ft. / 256 m (estimated)
Variation: 16W (1985)
From city: 3 miles SE of NEW BOSTON, NH
Time zone: UTC -4 (UTC -5 during Standard Time)
Zip code: 03070

Airport Operations

Airport use: Private use, PERSONAL USE.
Activation date: 12/1990
Control tower: no
ARTCC: BOSTON CENTER
FSS: BANGOR FLIGHT SERVICE STATION
Attendance: UNATNDD
Segmented circle: no

Airport Communications

WX ASOS at MHT (10 nm E): 119.55 (603-621-1766)
WX AWOS-3PT at ASH (12 nm SE): 125.1 (603-578-0473)
WX ASOS at CON (16 nm NE): 132.325 (603-224-6558)
WX ASOS at AFN (18 nm SW): 135.875 (603-532-6195)

Nearby radio navigation aids

VOR radial/distance  VOR name  Freq  Var
MHTr309/13.6MANCHESTER VOR/DME114.4015W
CONr207/15.9CONCORD VOR/DME112.9015W
LWMr313/27.9LAWRENCE VOR/DME112.5015W
EENr084/29.8KEENE VORTAC109.4014W
GDMr050/30.6GARDNER VOR/DME110.6014W
PSMr274/36.8PEASE VOR/DME116.5016W

 
NDB name  Hdg/Dist  Freq  Var  ID
FITZY332/8.020915WMJ -- .---
EPSOM239/12.921616WCO -.-. ---
ROLLINS263/39.426016WESG . ... --.
CLAREMONT144/39.823316WCNH -.-. -. ....

Airport Services

Runway Information

Runway 16/34

Dimensions: 940 x 100 ft. / 287 x 30 m
Surface: turf
RUNWAY 16  RUNWAY 34
Traffic pattern: leftleft
Obstructions: 15 ft. bldg, 450 ft. from runwaynone

Airport Ownership and Management from official FAA records

Ownership: Privately-owned
Owner: DAVID KENT
55 LAUREL LANE
NEW BOSTON, NH 03070
Phone 617-230-1581
Manager: DAVID KENT
55 LAUREL LANE
NEW BOSTON, NH 03070
Phone 617-230-1581

Additional Remarks

FOR CD CTC BOSTON APCH AT 603-594-5551.

Instrument Procedures

There are no published instrument procedures at NH60.

Some nearby airports with instrument procedures:

KMHT - Manchester Airport (10 nm E)
KASH - Boire Field Airport (12 nm SE)
KCON - Concord Municipal Airport (16 nm NE)
KAFN - Jaffrey Airport-Silver Ranch (18 nm SW)
KFIT - Fitchburg Municipal Airport (25 nm S)
 
Loc | Ops | Rwys | IFR | FBO | Links
Com | Nav | Svcs | Stats | Notes
Area around NH60 (Huff Memorial Airport)
 
Road maps at: MapQuest Bing Google
 
Aerial photo
WARNING: Photo may not be current or correct
Aerial photo of NH60 (Huff Memorial Airport)
Taken in the Winter of 2019

Do you have a better or more recent aerial photo of Huff Memorial Airport that you would like to share? If so, please send us your photo.

 
Sectional chart

 
Airport distance calculator
Flying to Huff Memorial Airport? Find the distance to fly.

From to NH60

Sunrise and sunset
Times for 19-Sep-2020
 Local
(UTC-4)
 Zulu
(UTC)
Morning civil twilight06:0410:04
Sunrise06:3310:33
Sunset18:4722:47
Evening civil twilight19:1623:16

Current date and time
Zulu (UTC)  20-Sep-2020 01:25:38
Local (UTC-4)  19-Sep-2020 21:25:38
 
METAR
KMHT 
10nm E 
200053Z 32004KT 10SM CLR 12/M02 A3036 RMK AO2 SLP296 T01171022
KASH 
13nm SE 
200056Z 31005KT 10SM CLR 11/M02 A3038 RMK AO2 SLP293 T01061017
KCON 
16nm NE 
200051Z AUTO 34004KT 10SM CLR 09/M03 A3038 RMK AO2 SLP290 T00891028
KAFN 
18nm SW 
200052Z AUTO 00000KT 10SM CLR 04/00 A3038 RMK AO2 SLP301 T00440000
TAF
KMHT 
10nm E 
191720Z 1918/2018 35009KT P6SM FEW070 FM192300 35004KT P6SM SKC FM201500 01011G18KT P6SM SKC
KCON 
16nm NE 
191720Z 1918/2018 02009KT P6SM SKC FM192300 00000KT P6SM SKC FM201200 35004KT P6SM SKC FM201500 36010G16KT P6SM SKC
NOTAMs
Click for the latest NOTAMs
NOTAMs are issued by the DoD/FAA and will open in a separate window not controlled by AirNav.

 

 
 

Would you like to see your business listed on this page?

 If your business provides an interesting product or service to pilots, flight crews, aircraft, or users of the Huff Memorial Airport, you should consider listing it here.  To start the listing process, click on the button below
 
Add a business
 

Other Pages about Huff Memorial Airport

Update a link
 
Copyright © AirNav, LLC. All rights reserved. Privacy Policy  Contact